| time (UTC) | temp F | wind direction | speed MPH | gust MPH | rain 1hr in | rain 24hr in | rain mn in | humidity % | barometer mb |
| 20260510043511 | 52 | 223 | 1.0 | 4.0 | 0.01 | 0.75 | 0.00 | 96 | 1006.7 |
| 20260510043011 | 52 | 223 | 2.0 | 4.0 | 0.01 | 0.76 | 0.00 | 95 | 1006.7 |
| 20260510041512 | 53 | 213 | 5.0 | 13.0 | 0.01 | 0.77 | 0.00 | 96 | 1006.7 |
| 20260510041011 | 53 | 221 | 4.0 | 9.0 | 0.01 | 0.77 | 0.00 | 96 | 1006.6 |
| 20260510040511 | 53 | 227 | 5.0 | 12.0 | 0.01 | 0.77 | 0.00 | 96 | 1007.1 |
| 20260510040011 | 53 | 217 | 5.0 | 12.0 | 0.01 | 0.77 | 0.00 | 96 | 1007.0 |
| 20260510035512 | 53 | 213 | 5.0 | 11.0 | 0.01 | 0.77 | 0.77 | 96 | 1006.8 |
| 20260510035011 | 53 | 213 | 4.0 | 9.0 | 0.01 | 0.77 | 0.77 | 96 | 1006.9 |
| 20260510034010 | 52 | 219 | 3.0 | 6.0 | 0.03 | 0.78 | 0.77 | 96 | 1007.0 |
| 20260510033511 | 52 | 230 | 2.0 | 5.0 | 0.02 | 0.78 | 0.76 | 96 | 1006.8 |
| 20260510032511 | 52 | 238 | 2.0 | 3.0 | 0.02 | 0.79 | 0.76 | 96 | 1006.8 |
| 20260510032011 | 52 | 239 | 1.0 | 3.0 | 0.02 | 0.79 | 0.76 | 96 | 1006.6 |
| 20260510031510 | 52 | 239 | 0.0 | 3.0 | 0.02 | 0.79 | 0.76 | 96 | 1006.4 |
| 20260510031011 | 53 | 239 | 1.0 | 9.0 | 0.03 | 0.79 | 0.76 | 96 | 1006.5 |
| 20260510030511 | 53 | 239 | 4.0 | 9.0 | 0.03 | 0.79 | 0.76 | 96 | 1006.7 |
| 20260510030011 | 53 | 225 | 6.0 | 17.0 | 0.03 | 0.79 | 0.76 | 96 | 1006.9 |
| 20260510025511 | 53 | 221 | 8.0 | 18.0 | 0.03 | 0.79 | 0.76 | 96 | 1007.0 |
| 20260510025012 | 53 | 227 | 6.0 | 18.0 | 0.02 | 0.78 | 0.75 | 96 | 1007.3 |
| 20260510024511 | 53 | 222 | 3.0 | 10.0 | 0.02 | 0.78 | 0.75 | 97 | 1007.6 |
| 20260510024011 | 53 | 205 | 1.0 | 4.0 | 0.01 | 0.77 | 0.74 | 96 | 1006.9 |
| 20260510023511 | 52 | 198 | 1.0 | 6.0 | 0.01 | 0.77 | 0.74 | 96 | 1006.4 |
| 20260510023010 | 52 | 193 | 2.0 | 7.0 | 0.01 | 0.77 | 0.74 | 96 | 1006.5 |
| 20260510022511 | 52 | 194 | 2.0 | 7.0 | 0.01 | 0.77 | 0.74 | 96 | 1006.4 |
| 20260510022010 | 52 | 204 | 1.0 | 4.0 | 0.01 | 0.77 | 0.74 | 96 | 1006.5 |
| 20260510021511 | 52 | 205 | 1.0 | 4.0 | 0.01 | 0.77 | 0.74 | 96 | 1006.6 |
| 20260510021011 | 51 | 205 | 0.0 | 1.0 | 0.00 | 0.76 | 0.73 | 96 | 1006.6 |
| 20260510020011 | 51 | 203 | 1.0 | 6.0 | 0.00 | 0.76 | 0.73 | 96 | 1006.3 |
| 20260510015511 | 52 | 205 | 2.0 | 6.0 | 0.00 | 0.76 | 0.73 | 95 | 1006.4 |
| 20260510014512 | 52 | 207 | 2.0 | 6.0 | 0.00 | 0.77 | 0.73 | 95 | 1006.5 |
| 20260510014011 | 52 | 207 | 2.0 | 5.0 | 0.00 | 0.77 | 0.73 | 95 | 1006.5 |
| 20260510013510 | 52 | 207 | 2.0 | 5.0 | 0.00 | 0.77 | 0.73 | 95 | 1006.4 |
| 20260510013011 | 52 | 207 | 2.0 | 5.0 | 0.00 | 0.77 | 0.73 | 94 | 1006.3 |
| 20260510012511 | 52 | 206 | 3.0 | 6.0 | 0.00 | 0.77 | 0.73 | 94 | 1006.3 |
| 20260510012011 | 53 | 207 | 3.0 | 6.0 | 0.00 | 0.77 | 0.73 | 94 | 1006.3 |
| 20260510011511 | 53 | 207 | 3.0 | 5.0 | 0.00 | 0.77 | 0.73 | 94 | 1006.2 |
| 20260510011010 | 53 | 212 | 3.0 | 7.0 | 0.00 | 0.78 | 0.73 | 94 | 1006.0 |
| 20260510010511 | 53 | 224 | 4.0 | 7.0 | 0.00 | 0.78 | 0.73 | 93 | 1005.9 |
| 20260510010011 | 54 | 232 | 4.0 | 9.0 | 0.00 | 0.79 | 0.73 | 93 | 1005.9 |
| 20260510005511 | 54 | 233 | 5.0 | 9.0 | 0.00 | 0.79 | 0.73 | 94 | 1005.9 |
| 20260510005011 | 54 | 237 | 4.0 | 9.0 | 0.02 | 0.80 | 0.73 | 94 | 1006.0 |
| 20260510004510 | 54 | 239 | 4.0 | 7.0 | 0.03 | 0.81 | 0.73 | 94 | 1006.1 |
| 20260510003511 | 54 | 232 | 3.0 | 8.0 | 0.07 | 0.82 | 0.73 | 94 | 1006.0 |
| 20260510003010 | 54 | 228 | 3.0 | 8.0 | 0.07 | 0.83 | 0.73 | 94 | 1005.9 |
| 20260510002511 | 54 | 226 | 3.0 | 8.0 | 0.10 | 0.83 | 0.73 | 93 | 1006.0 |
| 20260510001511 | 54 | 239 | 4.0 | 9.0 | 0.13 | 0.84 | 0.73 | 93 | 1005.9 |
| 20260510001011 | 54 | 245 | 5.0 | 10.0 | 0.31 | 0.84 | 0.73 | 93 | 1006.0 |
| 20260510000511 | 54 | 247 | 5.0 | 12.0 | 0.51 | 0.85 | 0.73 | 93 | 1005.9 |
| 20260509235510 | 54 | 252 | 6.0 | 13.0 | 0.54 | 0.85 | 0.72 | 93 | 1006.0 |
| 20260509235011 | 54 | 255 | 8.0 | 17.0 | 0.53 | 0.85 | 0.71 | 93 | 1005.9 |
| 20260509234510 | 54 | 256 | 9.0 | 19.0 | 0.51 | 0.84 | 0.69 | 93 | 1006.1 |
| 20260509234012 | 54 | 258 | 9.0 | 19.0 | 0.49 | 0.82 | 0.67 | 92 | 1006.2 |
| 20260509233511 | 54 | 267 | 7.0 | 19.0 | 0.48 | 0.82 | 0.66 | 92 | 1006.2 |
| 20260509233011 | 54 | 292 | 5.0 | 19.0 | 0.48 | 0.82 | 0.66 | 91 | 1006.0 |
| 20260509232011 | 54 | 305 | 7.0 | 17.0 | 0.44 | 0.79 | 0.62 | 89 | 1006.0 |
| 20260509231010 | 57 | 309 | 13.0 | 31.0 | 0.21 | 0.56 | 0.39 | 79 | 1006.3 |
| 20260509223510 | 66 | 226 | 7.0 | 22.0 | 0.00 | 0.43 | 0.18 | 56 | 1003.4 |
| 20260509223011 | 66 | 229 | 7.0 | 18.0 | 0.00 | 0.44 | 0.18 | 56 | 1003.6 |
| 20260509222511 | 67 | 218 | 8.0 | 27.0 | 0.00 | 0.45 | 0.18 | 55 | 1003.6 |
| 20260509222011 | 67 | 209 | 9.0 | 27.0 | 0.00 | 0.47 | 0.18 | 55 | 1003.4 |
| 20260509221510 | 67 | 214 | 7.0 | 17.0 | 0.00 | 0.47 | 0.18 | 56 | 1003.3 |
| 20260509221010 | 67 | 218 | 7.0 | 20.0 | 0.00 | 0.47 | 0.18 | 56 | 1003.2 |
| 20260509220010 | 68 | 206 | 11.0 | 29.0 | 0.00 | 0.47 | 0.18 | 55 | 1003.2 |
| 20260509215511 | 68 | 212 | 9.0 | 25.0 | 0.00 | 0.47 | 0.18 | 54 | 1003.3 |
| 20260509215011 | 68 | 208 | 8.0 | 18.0 | 0.00 | 0.47 | 0.18 | 55 | 1003.2 |
| 20260509214511 | 68 | 206 | 10.0 | 26.0 | 0.00 | 0.47 | 0.18 | 57 | 1003.2 |
| 20260509213511 | 68 | 200 | 10.0 | 20.0 | 0.00 | 0.47 | 0.18 | 55 | 1003.2 |
| 20260509213011 | 68 | 204 | 9.0 | 23.0 | 0.00 | 0.47 | 0.18 | 55 | 1003.2 |
| 20260509212510 | 68 | 200 | 9.0 | 23.0 | 0.00 | 0.47 | 0.18 | 56 | 1003.1 |
| 20260509212011 | 68 | 201 | 9.0 | 21.0 | 0.00 | 0.47 | 0.18 | 56 | 1003.3 |
| 20260509211510 | 68 | 200 | 9.0 | 24.0 | 0.00 | 0.47 | 0.18 | 59 | 1003.5 |
| 20260509211011 | 68 | 197 | 9.0 | 24.0 | 0.00 | 0.47 | 0.18 | 58 | 1003.5 |
| 20260509210511 | 68 | 208 | 9.0 | 21.0 | 0.00 | 0.47 | 0.18 | 58 | 1003.7 |
| 20260509210010 | 68 | 210 | 10.0 | 22.0 | 0.00 | 0.47 | 0.18 | 57 | 1003.6 |
| 20260509205511 | 68 | 213 | 9.0 | 24.0 | 0.00 | 0.47 | 0.18 | 56 | 1003.6 |
| 20260509205010 | 68 | 218 | 9.0 | 24.0 | 0.00 | 0.48 | 0.18 | 57 | 1003.8 |
| 20260509204511 | 68 | 212 | 10.0 | 20.0 | 0.00 | 0.48 | 0.18 | 57 | 1003.9 |
| 20260509204010 | 68 | 213 | 10.0 | 20.0 | 0.00 | 0.48 | 0.18 | 56 | 1003.9 |
| 20260509203511 | 68 | 223 | 9.0 | 21.0 | 0.00 | 0.48 | 0.18 | 57 | 1004.0 |
| 20260509203011 | 68 | 227 | 10.0 | 25.0 | 0.00 | 0.48 | 0.18 | 57 | 1004.0 |
| 20260509202511 | 68 | 222 | 11.0 | 25.0 | 0.00 | 0.48 | 0.18 | 55 | 1004.0 |
| 20260509202011 | 67 | 213 | 11.0 | 26.0 | 0.00 | 0.48 | 0.18 | 57 | 1004.1 |
| 20260509201510 | 67 | 209 | 10.0 | 26.0 | 0.00 | 0.48 | 0.18 | 57 | 1004.1 |
| 20260509201010 | 67 | 220 | 11.0 | 25.0 | 0.00 | 0.48 | 0.18 | 56 | 1004.1 |
| 20260509200511 | 67 | 223 | 12.0 | 25.0 | 0.00 | 0.48 | 0.18 | 57 | 1004.1 |
| 20260509200010 | 68 | 212 | 10.0 | 23.0 | 0.00 | 0.48 | 0.18 | 59 | 1004.3 |
| 20260509195511 | 67 | 208 | 9.0 | 23.0 | 0.00 | 0.48 | 0.18 | 56 | 1004.3 |
| 20260509195010 | 67 | 215 | 9.0 | 22.0 | 0.00 | 0.48 | 0.18 | 60 | 1004.6 |
| 20260509194010 | 67 | 228 | 12.0 | 23.0 | 0.00 | 0.48 | 0.18 | 59 | 1004.7 |
| 20260509193510 | 67 | 221 | 11.0 | 23.0 | 0.00 | 0.48 | 0.18 | 61 | 1004.9 |
| 20260509193011 | 66 | 222 | 11.0 | 22.0 | 0.00 | 0.48 | 0.18 | 63 | 1004.9 |
| 20260509191511 | 66 | 210 | 9.0 | 21.0 | 0.00 | 0.48 | 0.18 | 63 | 1005.3 |
| 20260509191011 | 65 | 208 | 10.0 | 21.0 | 0.00 | 0.48 | 0.18 | 62 | 1005.2 |
| 20260509190511 | 65 | 207 | 9.0 | 21.0 | 0.00 | 0.48 | 0.18 | 62 | 1005.2 |
| 20260509190011 | 65 | 209 | 8.0 | 18.0 | 0.00 | 0.48 | 0.18 | 63 | 1005.2 |
| 20260509185510 | 65 | 212 | 8.0 | 20.0 | 0.00 | 0.48 | 0.18 | 65 | 1005.2 |
| 20260509185011 | 65 | 212 | 8.0 | 20.0 | 0.00 | 0.48 | 0.18 | 62 | 1005.4 |
| 20260509184510 | 65 | 203 | 9.0 | 19.0 | 0.00 | 0.48 | 0.18 | 63 | 1005.3 |
| 20260509184011 | 65 | 191 | 10.0 | 23.0 | 0.00 | 0.48 | 0.18 | 62 | 1005.2 |
| 20260509183510 | 66 | 198 | 9.0 | 23.0 | 0.00 | 0.48 | 0.18 | 63 | 1005.2 |
| 20260509182010 | 65 | 203 | 10.0 | 26.0 | 0.00 | 0.48 | 0.18 | 64 | 1005.2 |
| 20260509181511 | 64 | 211 | 10.0 | 26.0 | 0.00 | 0.48 | 0.18 | 62 | 1005.2 |
| 20260509181011 | 65 | 214 | 10.0 | 19.0 | 0.00 | 0.48 | 0.18 | 63 | 1005.3 |
| 20260509180511 | 66 | 225 | 9.0 | 19.0 | 0.00 | 0.48 | 0.18 | 64 | 1005.3 |
| 20260509180011 | 66 | 223 | 8.0 | 18.0 | 0.00 | 0.48 | 0.18 | 64 | 1005.3 |
| 20260509175510 | 65 | 219 | 8.0 | 18.0 | 0.00 | 0.48 | 0.18 | 62 | 1005.4 |
| 20260509175010 | 66 | 216 | 5.0 | 16.0 | 0.00 | 0.48 | 0.18 | 64 | 1005.3 |
| 20260509174510 | 66 | 217 | 6.0 | 21.0 | 0.00 | 0.48 | 0.18 | 68 | 1005.4 |
| 20260509174011 | 66 | 222 | 7.0 | 21.0 | 0.00 | 0.48 | 0.18 | 63 | 1005.4 |
| 20260509173510 | 66 | 221 | 6.0 | 16.0 | 0.00 | 0.48 | 0.18 | 68 | 1005.4 |
| 20260509173011 | 64 | 222 | 6.0 | 16.0 | 0.00 | 0.48 | 0.18 | 66 | 1005.4 |
| 20260509172510 | 64 | 219 | 7.0 | 16.0 | 0.00 | 0.48 | 0.18 | 64 | 1005.4 |
| 20260509172011 | 64 | 199 | 8.0 | 18.0 | 0.00 | 0.48 | 0.18 | 70 | 1005.4 |
| 20260509171511 | 63 | 190 | 7.0 | 18.0 | 0.00 | 0.48 | 0.18 | 70 | 1005.4 |
| 20260509171010 | 64 | 205 | 7.0 | 16.0 | 0.00 | 0.48 | 0.18 | 71 | 1005.4 |
| 20260509170511 | 64 | 212 | 8.0 | 16.0 | 0.00 | 0.48 | 0.18 | 70 | 1005.3 |
| 20260509165511 | 63 | 229 | 7.0 | 15.0 | 0.00 | 0.48 | 0.18 | 70 | 1005.5 |
| 20260509165010 | 62 | 237 | 6.0 | 13.0 | 0.00 | 0.48 | 0.18 | 69 | 1005.6 |
| 20260509164010 | 63 | 221 | 4.0 | 11.0 | 0.00 | 0.48 | 0.18 | 79 | 1005.7 |
| 20260509163511 | 62 | 238 | 5.0 | 13.0 | 0.00 | 0.48 | 0.18 | 73 | 1005.9 |
| 20260509163010 | 62 | 245 | 6.0 | 13.0 | 0.00 | 0.48 | 0.18 | 72 | 1005.9 |
| 20260509162510 | 62 | 245 | 6.0 | 14.0 | 0.00 | 0.48 | 0.18 | 78 | 1006.0 |
| 20260509162010 | 59 | 245 | 7.0 | 14.0 | 0.00 | 0.48 | 0.18 | 77 | 1006.1 |
| 20260509161510 | 60 | 255 | 6.0 | 12.0 | 0.00 | 0.48 | 0.18 | 77 | 1006.2 |
| 20260509161011 | 59 | 260 | 5.0 | 11.0 | 0.00 | 0.48 | 0.18 | 81 | 1006.2 |
| 20260509160511 | 58 | 261 | 6.0 | 12.0 | 0.00 | 0.48 | 0.18 | 82 | 1006.3 |
| 20260509160011 | 58 | 270 | 6.0 | 12.0 | 0.00 | 0.48 | 0.18 | 81 | 1006.2 |
| 20260509155510 | 58 | 268 | 6.0 | 12.0 | 0.00 | 0.48 | 0.18 | 81 | 1006.3 |
| 20260509155011 | 59 | 252 | 6.0 | 12.0 | 0.00 | 0.48 | 0.18 | 79 | 1006.1 |
| 20260509154510 | 60 | 238 | 5.0 | 11.0 | 0.00 | 0.48 | 0.18 | 79 | 1006.1 |
| 20260509154010 | 59 | 244 | 5.0 | 14.0 | 0.00 | 0.48 | 0.18 | 82 | 1006.1 |
| 20260509153510 | 59 | 243 | 8.0 | 18.0 | 0.00 | 0.48 | 0.18 | 80 | 1006.1 |
| 20260509153010 | 58 | 240 | 9.0 | 18.0 | 0.00 | 0.48 | 0.18 | 79 | 1006.1 |
| 20260509152511 | 60 | 238 | 9.0 | 16.0 | 0.00 | 0.48 | 0.18 | 79 | 1006.1 |
| 20260509151511 | 59 | 230 | 4.0 | 15.0 | 0.00 | 0.48 | 0.18 | 85 | 1006.1 |
| 20260509150510 | 57 | 239 | 4.0 | 11.0 | 0.00 | 0.48 | 0.18 | 88 | 1006.1 |
| 20260509150010 | 56 | 214 | 4.0 | 10.0 | 0.00 | 0.48 | 0.18 | 89 | 1006.3 |
| 20260509145511 | 56 | 221 | 5.0 | 11.0 | 0.00 | 0.48 | 0.18 | 90 | 1006.3 |
| 20260509145011 | 56 | 235 | 6.0 | 16.0 | 0.00 | 0.48 | 0.18 | 89 | 1006.3 |
| 20260509144510 | 56 | 228 | 6.0 | 16.0 | 0.00 | 0.48 | 0.18 | 90 | 1006.3 |
| 20260509144011 | 56 | 226 | 7.0 | 12.0 | 0.00 | 0.48 | 0.18 | 90 | 1006.2 |
| 20260509143511 | 56 | 227 | 7.0 | 12.0 | 0.00 | 0.48 | 0.18 | 90 | 1006.1 |
| 20260509143010 | 56 | 225 | 5.0 | 12.0 | 0.00 | 0.48 | 0.18 | 91 | 1006.2 |
| 20260509142511 | 56 | 234 | 4.0 | 12.0 | 0.00 | 0.48 | 0.18 | 92 | 1006.2 |
| 20260509142010 | 55 | 234 | 5.0 | 12.0 | 0.00 | 0.48 | 0.18 | 93 | 1006.2 |
| 20260509141511 | 55 | 228 | 5.0 | 10.0 | 0.00 | 0.48 | 0.18 | 94 | 1006.2 |
| 20260509141010 | 54 | 224 | 5.0 | 11.0 | 0.00 | 0.48 | 0.18 | 94 | 1006.2 |
| 20260509140511 | 54 | 225 | 4.0 | 11.0 | 0.00 | 0.48 | 0.18 | 95 | 1006.2 |
| 20260509135010 | 54 | 215 | 5.0 | 10.0 | 0.00 | 0.48 | 0.18 | 95 | 1006.1 |
| 20260509134510 | 54 | 210 | 5.0 | 10.0 | 0.00 | 0.48 | 0.18 | 95 | 1006.2 |
| 20260509134011 | 54 | 215 | 4.0 | 13.0 | 0.00 | 0.48 | 0.18 | 95 | 1006.1 |
| 20260509133510 | 53 | 219 | 4.0 | 13.0 | 0.00 | 0.48 | 0.18 | 96 | 1006.2 |
| 20260509132510 | 53 | 219 | 3.0 | 9.0 | 0.01 | 0.48 | 0.18 | 96 | 1006.3 |
| 20260509132010 | 53 | 218 | 3.0 | 6.0 | 0.01 | 0.48 | 0.18 | 96 | 1006.2 |
| 20260509131510 | 53 | 235 | 3.0 | 8.0 | 0.01 | 0.49 | 0.18 | 96 | 1006.3 |
| 20260509131011 | 53 | 234 | 3.0 | 8.0 | 0.01 | 0.49 | 0.18 | 96 | 1006.3 |
| 20260509130510 | 53 | 225 | 4.0 | 8.0 | 0.01 | 0.50 | 0.18 | 96 | 1006.4 |
| 20260509130011 | 53 | 221 | 5.0 | 11.0 | 0.01 | 0.51 | 0.18 | 96 | 1006.4 |
| 20260509125510 | 52 | 222 | 5.0 | 11.0 | 0.01 | 0.51 | 0.18 | 96 | 1006.4 |
| 20260509125010 | 53 | 227 | 4.0 | 10.0 | 0.01 | 0.51 | 0.18 | 96 | 1006.5 |
| 20260509123510 | 52 | 214 | 4.0 | 9.0 | 0.01 | 0.51 | 0.18 | 97 | 1006.7 |
| 20260509123010 | 52 | 217 | 5.0 | 10.0 | 0.01 | 0.51 | 0.18 | 97 | 1006.6 |
| 20260509122510 | 52 | 215 | 4.0 | 10.0 | 0.00 | 0.50 | 0.17 | 97 | 1006.7 |
| 20260509121010 | 52 | 208 | 4.0 | 9.0 | 0.00 | 0.50 | 0.17 | 97 | 1006.6 |
| 20260509120510 | 52 | 212 | 4.0 | 9.0 | 0.00 | 0.51 | 0.17 | 97 | 1006.7 |
| 20260509120010 | 52 | 212 | 3.0 | 8.0 | 0.00 | 0.52 | 0.17 | 97 | 1006.6 |
| 20260509115510 | 52 | 214 | 3.0 | 8.0 | 0.00 | 0.55 | 0.17 | 97 | 1006.7 |
| 20260509115011 | 52 | 211 | 4.0 | 7.0 | 0.00 | 0.55 | 0.17 | 97 | 1006.7 |
| 20260509114510 | 51 | 200 | 4.0 | 8.0 | 0.00 | 0.55 | 0.17 | 97 | 1006.6 |
| 20260509114010 | 51 | 200 | 4.0 | 11.0 | 0.00 | 0.55 | 0.17 | 97 | 1006.6 |
| 20260509113510 | 51 | 197 | 3.0 | 11.0 | 0.00 | 0.55 | 0.17 | 97 | 1006.7 |
| 20260509113010 | 51 | 192 | 3.0 | 7.0 | 0.00 | 0.55 | 0.17 | 97 | 1006.6 |
| 20260509112510 | 51 | 194 | 3.0 | 7.0 | 0.00 | 0.55 | 0.17 | 97 | 1006.6 |
| 20260509112010 | 51 | 200 | 3.0 | 6.0 | 0.00 | 0.55 | 0.17 | 97 | 1006.6 |
| 20260509111510 | 51 | 208 | 3.0 | 7.0 | 0.00 | 0.55 | 0.17 | 97 | 1006.6 |
| 20260509110510 | 51 | 211 | 3.0 | 7.0 | 0.00 | 0.55 | 0.17 | 97 | 1006.4 |
| 20260509110010 | 51 | 209 | 2.0 | 6.0 | 0.00 | 0.55 | 0.17 | 97 | 1006.4 |
| 20260509105511 | 51 | 198 | 3.0 | 7.0 | 0.00 | 0.55 | 0.17 | 97 | 1006.4 |
| 20260509105010 | 51 | 189 | 3.0 | 7.0 | 0.00 | 0.55 | 0.17 | 97 | 1006.3 |
| 20260509104510 | 51 | 176 | 3.0 | 6.0 | 0.00 | 0.55 | 0.17 | 97 | 1006.3 |
| 20260509104011 | 51 | 177 | 2.0 | 7.0 | 0.00 | 0.55 | 0.17 | 97 | 1006.3 |
| 20260509103510 | 51 | 195 | 2.0 | 7.0 | 0.00 | 0.55 | 0.17 | 97 | 1006.3 |
| 20260509102010 | 50 | 157 | 2.0 | 6.0 | 0.00 | 0.55 | 0.17 | 97 | 1006.4 |
| 20260509101510 | 50 | 172 | 2.0 | 5.0 | 0.00 | 0.55 | 0.17 | 97 | 1006.5 |
| 20260509101010 | 50 | 190 | 2.0 | 6.0 | 0.00 | 0.55 | 0.17 | 97 | 1006.5 |
| 20260509100510 | 50 | 193 | 2.0 | 6.0 | 0.00 | 0.55 | 0.17 | 97 | 1006.4 |
| 20260509100010 | 50 | 201 | 3.0 | 7.0 | 0.00 | 0.55 | 0.17 | 97 | 1006.5 |
| 20260509095510 | 50 | 202 | 4.0 | 7.0 | 0.00 | 0.55 | 0.17 | 97 | 1006.5 |
| 20260509095010 | 51 | 197 | 3.0 | 7.0 | 0.00 | 0.55 | 0.17 | 97 | 1006.6 |
| 20260509094510 | 50 | 199 | 2.0 | 7.0 | 0.00 | 0.55 | 0.17 | 97 | 1006.6 |
| 20260509094010 | 51 | 193 | 3.0 | 7.0 | 0.00 | 0.55 | 0.17 | 97 | 1006.7 |
| 20260509093510 | 51 | 187 | 3.0 | 7.0 | 0.00 | 0.55 | 0.17 | 97 | 1006.6 |
| 20260509093011 | 51 | 195 | 4.0 | 8.0 | 0.00 | 0.55 | 0.17 | 97 | 1006.6 |
| 20260509092510 | 51 | 212 | 4.0 | 8.0 | 0.00 | 0.55 | 0.17 | 97 | 1006.7 |
| 20260509092010 | 51 | 220 | 3.0 | 7.0 | 0.00 | 0.55 | 0.17 | 96 | 1006.8 |
| 20260509091510 | 51 | 215 | 3.0 | 13.0 | 0.00 | 0.55 | 0.17 | 97 | 1006.9 |
| 20260509091010 | 51 | 217 | 4.0 | 13.0 | 0.00 | 0.55 | 0.17 | 97 | 1006.9 |
| 20260509090510 | 51 | 221 | 4.0 | 13.0 | 0.00 | 0.55 | 0.17 | 97 | 1006.9 |
| 20260509085510 | 51 | 214 | 3.0 | 8.0 | 0.00 | 0.55 | 0.17 | 97 | 1006.8 |
| 20260509085010 | 51 | 205 | 4.0 | 10.0 | 0.00 | 0.55 | 0.17 | 97 | 1006.9 |
| 20260509084510 | 51 | 196 | 4.0 | 11.0 | 0.00 | 0.55 | 0.17 | 97 | 1006.9 |
| 20260509084010 | 50 | 201 | 4.0 | 11.0 | 0.00 | 0.55 | 0.17 | 97 | 1007.0 |
| 20260509083510 | 50 | 207 | 4.0 | 9.0 | 0.00 | 0.55 | 0.17 | 97 | 1007.0 |
| 20260509083010 | 50 | 212 | 3.0 | 8.0 | 0.00 | 0.55 | 0.17 | 97 | 1007.0 |
| 20260509082511 | 50 | 217 | 3.0 | 7.0 | 0.00 | 0.55 | 0.17 | 97 | 1007.1 |
| 20260509082010 | 50 | 210 | 3.0 | 7.0 | 0.01 | 0.55 | 0.17 | 97 | 1007.1 |
| 20260509081510 | 50 | 213 | 2.0 | 7.0 | 0.01 | 0.55 | 0.17 | 97 | 1007.0 |
| 20260509081010 | 50 | 220 | 1.0 | 6.0 | 0.02 | 0.55 | 0.17 | 96 | 1007.1 |
| 20260509080510 | 50 | 196 | 1.0 | 5.0 | 0.02 | 0.55 | 0.17 | 97 | 1007.1 |
| 20260509080010 | 50 | 178 | 2.0 | 6.0 | 0.03 | 0.55 | 0.17 | 97 | 1007.1 |
| 20260509074510 | 50 | 199 | 2.0 | 8.0 | 0.04 | 0.55 | 0.17 | 97 | 1007.1 |
| 20260509074010 | 50 | 193 | 2.0 | 8.0 | 0.04 | 0.55 | 0.17 | 96 | 1007.1 |
| 20260509073510 | 50 | 197 | 2.0 | 5.0 | 0.04 | 0.55 | 0.17 | 96 | 1007.2 |
| 20260509073010 | 50 | 213 | 2.0 | 5.0 | 0.05 | 0.55 | 0.17 | 96 | 1007.2 |
| 20260509072510 | 50 | 208 | 2.0 | 4.0 | 0.06 | 0.55 | 0.17 | 96 | 1007.2 |
| 20260509072011 | 50 | 191 | 2.0 | 6.0 | 0.06 | 0.54 | 0.16 | 96 | 1007.3 |
| 20260509071510 | 50 | 210 | 2.0 | 6.0 | 0.07 | 0.54 | 0.16 | 96 | 1007.4 |
| 20260509071010 | 50 | 229 | 2.0 | 5.0 | 0.07 | 0.53 | 0.15 | 96 | 1007.4 |
| 20260509070510 | 50 | 228 | 2.0 | 6.0 | 0.07 | 0.53 | 0.15 | 96 | 1007.4 |
| 20260509065509 | 50 | 200 | 3.0 | 7.0 | 0.07 | 0.52 | 0.14 | 96 | 1007.3 |
| 20260509065010 | 50 | 199 | 3.0 | 7.0 | 0.07 | 0.52 | 0.14 | 96 | 1007.3 |
| 20260509064510 | 50 | 207 | 3.0 | 8.0 | 0.06 | 0.51 | 0.13 | 96 | 1007.4 |
| 20260509064010 | 50 | 213 | 4.0 | 9.0 | 0.06 | 0.51 | 0.13 | 96 | 1007.5 |
| 20260509063509 | 50 | 206 | 3.0 | 9.0 | 0.07 | 0.51 | 0.13 | 96 | 1007.5 |
| 20260509063010 | 50 | 213 | 3.0 | 8.0 | 0.06 | 0.50 | 0.12 | 96 | 1007.6 |
| 20260509061511 | 50 | 205 | 4.0 | 14.0 | 0.05 | 0.47 | 0.09 | 96 | 1007.8 |
| 20260509061010 | 50 | 210 | 3.0 | 9.0 | 0.04 | 0.46 | 0.08 | 96 | 1007.8 |
| 20260509060510 | 50 | 203 | 3.0 | 10.0 | 0.04 | 0.46 | 0.08 | 96 | 1007.9 |
| 20260509060010 | 50 | 192 | 4.0 | 10.0 | 0.03 | 0.45 | 0.07 | 96 | 1007.9 |
| 20260509055510 | 50 | 184 | 3.0 | 9.0 | 0.04 | 0.45 | 0.07 | 96 | 1007.9 |
| 20260509055010 | 50 | 188 | 2.0 | 7.0 | 0.05 | 0.45 | 0.07 | 96 | 1007.9 |
| 20260509054510 | 50 | 182 | 2.0 | 9.0 | 0.05 | 0.45 | 0.07 | 96 | 1008.0 |
| 20260509054010 | 50 | 166 | 3.0 | 9.0 | 0.04 | 0.44 | 0.06 | 96 | 1008.0 |
| 20260509053509 | 50 | 167 | 3.0 | 11.0 | 0.04 | 0.44 | 0.06 | 96 | 1008.0 |
| 20260509053010 | 50 | 171 | 3.0 | 11.0 | 0.05 | 0.44 | 0.06 | 96 | 1008.2 |
| 20260509052510 | 50 | 175 | 3.0 | 8.0 | 0.04 | 0.43 | 0.05 | 96 | 1008.2 |
| 20260509051510 | 50 | 187 | 2.0 | 6.0 | 0.03 | 0.42 | 0.04 | 96 | 1008.3 |
| 20260509051010 | 50 | 183 | 2.0 | 7.0 | 0.04 | 0.42 | 0.04 | 96 | 1008.3 |
| 20260509050010 | 50 | 186 | 3.0 | 7.0 | 0.03 | 0.41 | 0.03 | 96 | 1008.4 |
| 20260509045510 | 50 | 201 | 2.0 | 6.0 | 0.03 | 0.41 | 0.03 | 96 | 1008.5 |
| 20260509045010 | 50 | 192 | 2.0 | 6.0 | 0.02 | 0.40 | 0.02 | 96 | 1008.6 |
| 20260509044509 | 50 | 189 | 3.0 | 7.0 | 0.03 | 0.40 | 0.02 | 96 | 1008.6 |
| 20260509044010 | 50 | 216 | 4.0 | 10.0 | 0.03 | 0.40 | 0.02 | 96 | 1008.5 |